Tiempo atmosférico en la estación meteorológica de Andújar, Jaén (193 m.)



Fecha
DESCASC
Temp. máxima en grados centígrados (hora)
DESCASC
Temp. mínima en grados centígrados (hora)
DESCASC
Temp. media en grados centígrados
DESCASC
Racha de viento máxima en m/sg (hora)
DESCASC
Velocidad máxima media en intervalos de 10 minutos(hora)
DESCASC
Precipitaciones diarias en mm
DESCASC
Precipitaciones de 00:00 a 06:00 en mm
DESCASC
Precipitaciones de 06:00 a 12:00 en mm
DESCASC
Precipitaciones de 12:00 a 18:00 en mm
DESCASC
Precipitaciones de 18:00 a 24:00 en mm
DESCASC
17-09-2020 32.6 (16:30) 19.6 (08:30) 26.1 10.28 (18:20) 4.17 (23:30) 0.6 0 0 0.6 0
16-09-2020 33.7 (17:20) 15.9 (08:00) 24.8 8.33 (23:40) 4.17 (23:40) 0 0 0 0 0
15-09-2020 33.1 (17:30) 19.4 (08:20) 26.2 7.5 (17:00) 4.17 (18:10) 0 0 0 0 0
14-09-2020 33.4 (14:30) 16.1 (00:00) 24.8 6.39 (23:50) 4.17 (16:30) 0 0 0 0 0
13-09-2020 37.5 (16:20) 16.8 (00:00) 27.1 6.67 (12:50) 3.61 (17:30) 0 0 0 0 0
12-09-2020 38.1 (17:10) 14.7 (00:00) 26.4 6.11 (13:40) 3.33 (21:50) 0 0 0 0 0
11-09-2020 36.4 (18:10) 14.2 (00:00) 25.3 5 (16:40) 3.06 (22:40) 0 0 0 0 0
10-09-2020 35.5 (17:40) 14.6 (00:00) 25.1 7.5 (15:20) 2.78 (17:50) 0 0 0 0 0
09-09-2020 33.7 (16:40) 16.2 (00:00) 25 5 (16:30) 3.06 (00:10) 0 0 0 0 0
08-09-2020 34 (17:10) 14.2 (00:00) 24.1 5.56 (23:40) 3.33 (23:40) 0 0 0 0 0
07-09-2020 36.5 (17:40) 18.1 (07:50) 27.3 7.78 (00:40) 5 (00:30) 0 0 0 0 0
06-09-2020 36.4 (17:30) 17.2 (00:00) 26.8 6.67 (23:59) 4.17 (23:59) 0 0 0 0 0
05-09-2020 36.8 (16:50) 14.7 (00:00) 25.7 5.28 (01:50) 3.33 (01:50) 0 0 0 0 0
04-09-2020 37 (17:00) 14.6 (00:00) 25.8 7.22 (14:00) 5 (21:40) 0 0 0 0 0
03-09-2020 36 (15:40) 13.8 (00:00) 24.9 5.56 (22:00) 3.89 (22:00) 0 0 0 0 0
02-09-2020 35 (17:50) 13.4 (00:00) 24.2 5.28 (16:00) 3.33 (22:40) 0 0 0 0 0
01-09-2020 30.6 (18:20) 12.6 (00:00) 21.6 6.94 (15:30) 3.61 (15:20) 0 0 0 0 0
31-08-2020 34 (17:30) 11.2 (00:00) 22.6 6.11 (12:00) 2.78 (12:00) 0 0 0 0 0
30-08-2020 32.1 (16:50) 12.9 (00:00) 22.5 6.94 (13:30) 3.61 (12:40) 0 0 0 0 0
29-08-2020 29.9 (17:20) 16.1 (00:00) 23 8.61 (15:30) 4.17 (00:20) 0 0 0 0 0
28-08-2020 35.7 (15:40) 19.5 (00:00) 27.6 10.83 (18:10) 6.39 (17:20) 0 0 0 0 0
27-08-2020 39.9 (16:40) 18 (00:00) 29 10 (18:40) 5.28 (18:20) 0 0 0 0 0
26-08-2020 40.1 (17:30) 18.5 (00:00) 29.3 6.11 (15:40) 3.06 (18:40) 0 0 0 0 0
25-08-2020 38 (17:10) 19.2 (00:00) 28.6 6.39 (16:20) 3.61 (17:40) 0 0 0 0 0
24-08-2020 37.6 (16:40) 15.1 (00:00) 26.3 6.94 (17:30) 3.33 (19:50) 0 0 0 0 0
23-08-2020 38.9 (16:50) 16.5 (00:00) 27.7 7.5 (17:00) 4.17 (17:00) 0 0 0 0 0
22-08-2020 38.2 (16:40) 17.3 (00:00) 27.8 6.39 (17:20) 3.33 (17:20) 0 0 0 0 0
21-08-2020 36.4 (17:20) 15.5 (00:00) 26 8.61 (18:30) 5.28 (18:40) 0 0 0 0 0

Gráficas

Temp. máximas Temp. mínimas Temp. medias Precipitaciones Rachas de viento máximas Velocidades máximas media en intervalos de 10 minutos

Datos horarios

Fecha y hora oficial Temperatura (ºC) Velocidad del viento (km/h) Dirección del viento Racha (km/h) Dirección de racha Precipitación (mm) Presión (hPa) Tendencia (hPa) Humedad (%)
2020-09-19 23:00:00 17.5 0 Calma 10 Sudoeste 0 994.9 1.6 93
2020-09-19 22:00:00 18.6 6 Sudoeste 10 Oeste 0 994.5 1.3 84
2020-09-19 21:00:00 19.6 4 Sudoeste 11 Sudoeste 0 993.7 0.5 80
2020-09-19 20:00:00 20.8 6 Oeste 15 Oeste 0 993.3 -0.2 69
2020-09-19 19:00:00 22.3 7 Sudoeste 13 Sudoeste 0 993.2 -0.7 64
2020-09-19 18:00:00 22.8 4 Oeste 13 Oeste 0 993.2 -1 64
2020-09-19 17:00:00 21.5 3 Oeste 12 Sudoeste 0 993.5 -1 72
2020-09-19 16:00:00 19.7 6 Oeste 21 Oeste 0 993.9 -0.9 87
2020-09-19 15:00:00 19.8 13 Noroeste 22 Sudoeste 0 994.2 -0.6 76
2020-09-19 14:00:00 21.5 14 Oeste 24 Oeste 0 994.5 -0.1 68
2020-09-19 13:00:00 20.9 13 Oeste 23 Oeste 0 994.8 0.6 69
2020-09-19 12:00:00 19.9 12 Oeste 20 Oeste 0 994.8 1.1 79
2020-09-19 11:00:00 18.9 6 Oeste 13 Oeste 0 994.6 -- 84
2020-09-19 10:00:00 18.1 7 Noroeste 15 Oeste 0 994.2 -- 92
2020-09-19 09:00:00 17.5 5 Oeste 16 Oeste 0 993.7 -- 97
2020-09-19 08:00:00 16.8 9 Sudoeste 14 Oeste 0 993.3 -- 98
2020-09-19 07:00:00 16.8 8 Oeste 13 Oeste 3.1 992.8 -- 98
2020-09-19 06:00:00 17.1 5 Noroeste 22 Oeste 0 992.4 -- 98
2020-09-19 05:00:00 18.3 10 Oeste 27 Oeste 0 992.2 -- 88
2020-09-19 04:00:00 18.9 10 Oeste 21 Oeste 0 992.2 -- 81
2020-09-19 03:00:00 18.8 10 Oeste 15 Oeste 0 992.2 -- 84
2020-09-19 02:00:00 18.7 5 Noroeste 12 Oeste 0 992.5 -- 89
2020-09-19 01:00:00 18.6 5 Noroeste 12 Oeste 0 992.4 -- 87
2020-09-19 00:00:00 19.7 5 Oeste 26 Oeste 0 992.4 -- 82
2020-09-18 23:00:00 19.7 3 Sudoeste 17 Noroeste 0 992.1 -- 90
2020-09-18 22:00:00 19.9 12 Oeste 28 Oeste 0.1 991.3 -- 87
2020-09-18 21:00:00 21.1 12 Oeste 26 Oeste 0 990.1 -- 83
2020-09-18 20:00:00 21.8 15 Oeste 33 Oeste 0 989.2 -- 73
2020-09-18 19:00:00 23.1 11 Noroeste 37 Oeste 0 988.6 -- 67
2020-09-18 18:00:00 24.9 20 Oeste 52 Sudoeste 0 988.1 -- 53
2020-09-18 17:00:00 28.2 27 Sudoeste 48 Sudoeste 0 987.4 -- 41
2020-09-18 16:00:00 27.6 30 Sudoeste 56 Sudoeste 0 987.2 -- 41
2020-09-18 15:00:00 30.8 22 Sudoeste 45 Sur 0 987.1 -- 36
2020-09-18 14:00:00 26.5 3 Noroeste 19 Noroeste 0 987.1 -- 55
2020-09-18 13:00:00 25.6 5 Oeste 18 Oeste 0 988.6 -- 60
2020-09-18 12:00:00 24.4 8 Oeste 21 Noroeste 0 989 -- 69
2020-09-18 11:00:00 21.7 6 Oeste 10 Oeste 0 988.5 -- 89
2020-09-18 10:00:00 19.6 3 Oeste 9 Oeste 0.5 987.7 -- 94
2020-09-18 09:00:00 20.4 0 Calma 6 Sur 0.2 988.2 -- 84
2020-09-18 08:00:00 21 0 Calma 8 Sur 0 988 -- 69
2020-09-18 07:00:00 22.7 3 Sur 15 Sudoeste 0 987.6 -- 61
2020-09-18 06:00:00 23.3 6 Sur 19 Sur 0 987.5 -- 58
2020-09-18 05:00:00 23.5 10 Sur 24 Sur 0 987.8 -- 57
2020-09-18 04:00:00 24.4 11 Sur 27 Sur 0 987.7 -- 55
2020-09-18 03:00:00 24.2 8 Sur 31 Sudoeste 0 988.6 -- 54
2020-09-18 02:00:00 24.8 9 Sur 26 Sudeste 0 989 -- 53
2020-09-18 01:00:00 25 11 Sur 27 Sur 0 988.9 -- 51
2020-09-18 00:00:00 25.1 13 Sur 33 Sur 0 989.1 -- 52
2020-09-17 23:00:00 25.9 13 Sur 31 Sur 0 988.9 -- 49
2020-09-17 22:00:00 27 14 Sur 34 Sur 0 988.1 -- 47
2020-09-17 21:00:00 24.4 3 Sudeste 17 Este 0 987.6 -- 70
2020-09-17 20:00:00 24.4 5 Sudeste 18 Sudeste 0 986.8 -- 71
2020-09-17 19:00:00 25.7 6 Este 37 Sudeste 0 986.6 -- 65
2020-09-17 18:00:00 27.1 8 Sudoeste 20 Oeste 0.6 986.5 -- 60
2020-09-17 17:00:00 32.2 10 Oeste 23 Oeste 0 986.8 -- 38
2020-09-17 16:00:00 30.1 4 Norte 12 Nordeste 0 987.7 -- 45
2020-09-17 15:00:00 28.7 2 Norte 8 Noroeste 0 988.9 -- 51
2020-09-17 14:00:00 27.4 0 Calma 6 Nordeste 0 989.6 -- 57
2020-09-17 13:00:00 26.3 4 Sudeste 15 Este 0 989.9 -- 63
2020-09-17 12:00:00 24.7 6 Este 14 Este 0 990.1 -- 70
2020-09-17 11:00:00 23.5 5 Este 13 Este 0 990.3 -- 77
2020-09-17 10:00:00 21.9 0 Calma 6 Sudeste 0 990 -- 82
2020-09-17 09:00:00 20.7 0 Calma -- -- 0 989.9 -- 84
2020-09-17 08:00:00 19.9 0 Calma 4 Sudeste 0 989.8 -- 86
2020-09-17 07:00:00 19.7 3 Sudoeste 5 Sudoeste 0 989.7 -- 85
2020-09-17 06:00:00 20.5 3 Oeste 9 Noroeste 0 989.9 -- 85
2020-09-17 05:00:00 21.3 2 Oeste 5 Sudoeste 0 989.6 -- 84
2020-09-17 04:00:00 21.5 0 Calma 6 Sudeste 0 990 -- 84
2020-09-17 03:00:00 21.9 5 Sudeste 13 Este 0 990.6 -- 83
2020-09-17 02:00:00 22.6 2 Este 12 Sudoeste 0 990.9 -- 77
2020-09-17 01:00:00 23.5 6 Sudoeste 18 Oeste 0 991.8 -- 68
2020-09-17 00:00:00 23.5 5 Oeste 30 Sudoeste 0 991.7 -- 68
2020-09-16 23:00:00 27.2 9 Oeste 22 Oeste 0 991.5 -- 47
2020-09-16 22:00:00 27.8 13 Oeste 20 Oeste 0 990.8 -- 44
2020-09-16 21:00:00 26.8 6 Oeste 10 Oeste 0 989.6 -- 45
2020-09-16 20:00:00 28.5 5 Oeste 19 Oeste 0 989.4 -- 43
2020-09-16 19:00:00 30.6 9 Oeste 18 Oeste 0 989.5 -- 41
2020-09-16 18:00:00 31.6 8 Noroeste 19 Noroeste 0 989.2 -- 39
2020-09-16 17:00:00 32 9 Noroeste 20 Oeste 0 989.7 -- 38
2020-09-16 16:00:00 31.5 4 Oeste 12 Sur 0 990.3 -- 41
2020-09-16 15:00:00 31.9 5 Oeste 13 Noroeste 0 991.1 -- 41
2020-09-16 14:00:00 31.2 6 Sudeste 16 Sudeste 0 991.9 -- 44
2020-09-16 13:00:00 29.7 4 Este 13 Sudeste 0 992.9 -- 46
2020-09-16 12:00:00 27 5 Sudeste 18 Sudeste 0 993.8 -- 55
2020-09-16 11:00:00 24.4 8 Este 16 Este 0 994.2 -- 61
2020-09-16 10:00:00 22.6 4 Sudeste 9 Sur 0 994.7 -- 67
2020-09-16 09:00:00 17.7 0 Calma 4 Este 0 994.7 -- 79
2020-09-16 08:00:00 16 3 Este 6 Sudeste 0 994.5 -- 81
2020-09-16 07:00:00 16.9 0 Calma 5 Sudoeste 0 994.4 -- 81
2020-09-16 06:00:00 17.4 0 Calma 6 Oeste 0 994.6 -- 81
2020-09-16 05:00:00 17.3 0 Calma 3 Oeste 0 994.6 -- 79
2020-09-16 04:00:00 17.7 0 Calma 6 Este 0 995.1 -- 74
2020-09-16 03:00:00 19.1 2 Este 6 Sudeste 0 994.7 -- 70
2020-09-16 02:00:00 20 0 Calma 6 Oeste 0 995 -- 68
2020-09-16 01:00:00 20 5 Oeste 7 Oeste 0 994.9 -- 64
2020-09-16 00:00:00 21 2 Oeste 6 Sudeste 0 994.5 -- 60
2020-09-15 23:00:00 22.6 0 Calma 4 Sudoeste 0 994.4 -- 57
2020-09-15 22:00:00 -- 2 Sudoeste 5 Noroeste 0 -- -- --
2020-09-15 21:00:00 25.9 4 Oeste 8 Oeste 0 993.4 -- 51
2020-09-15 20:00:00 28.9 8 Oeste 19 Oeste 0 993.2 -- 44
2020-09-15 19:00:00 30.6 15 Oeste 26 Oeste 0 993.2 -- 42
2020-09-15 18:00:00 31.8 13 Noroeste 27 Oeste 0 993.3 -- 41
2020-09-15 17:00:00 31.7 15 Oeste 27 Oeste 0 993.7 -- 40
2020-09-15 16:00:00 32.3 7 Oeste 22 Noroeste 0 994.2 -- 41
2020-09-15 15:00:00 30.5 6 Noroeste 15 Noroeste 0 995 -- 43
2020-09-15 14:00:00 30.8 4 Sudeste 15 Este 0 995.9 -- 47
2020-09-15 13:00:00 28.7 2 Sur 22 Sudoeste 0 996.5 -- 50
2020-09-15 12:00:00 28.2 0 Calma 10 Norte 0 997.3 -- 55
2020-09-15 11:00:00 25.2 0 Calma 7 Nordeste 0 997.5 -- 67
2020-09-15 10:00:00 23.2 2 Noroeste 5 Oeste 0 997.4 -- 77
2020-09-15 09:00:00 20.6 0 Calma -- -- 0 997.1 -- 91
2020-09-15 08:00:00 19.7 0 Calma 3 Sudoeste 0 996.8 -- 92
2020-09-15 07:00:00 20.8 2 Oeste 12 Sur 0 996.4 -- 89
2020-09-15 06:00:00 22.3 6 Sur 12 Sur 0 996.2 -- 85
2020-09-15 05:00:00 22.1 10 Sudoeste 18 Oeste 0 996.3 -- 86
2020-09-15 04:00:00 22.5 9 Oeste 17 Oeste 0 996.5 -- 85
2020-09-15 03:00:00 23 7 Noroeste 17 Oeste 0 996.2 -- 81
2020-09-15 02:00:00 23.9 6 Oeste 22 Oeste 0 996.3 -- 75
2020-09-15 01:00:00 24.8 12 Oeste 23 Oeste 0 996 -- 67
2020-09-15 00:00:00 25.8 11 Oeste 23 Sudoeste 0 995.4 -- 60
2020-09-14 23:00:00 25.4 7 Noroeste 18 Oeste 0 994.9 -- 52
2020-09-14 22:00:00 27.1 12 Oeste 17 Oeste 0 994 -- 47
2020-09-14 21:00:00 28.2 12 Oeste 16 Oeste 0 992.9 -- 45
2020-09-14 20:00:00 30 0 Calma 7 Noroeste 0 992.7 -- 45
2020-09-14 19:00:00 30.1 5 Noroeste 9 Noroeste 0 992.9 -- 43
2020-09-14 18:00:00 30.8 0 Calma 9 Noroeste 0 993 -- 44
2020-09-14 17:00:00 30.2 8 Oeste 21 Oeste 0 993.8 -- 43
2020-09-14 16:00:00 30.6 12 Oeste 22 Oeste 0 994.1 -- 41
2020-09-14 15:00:00 32.2 5 Oeste 14 Oeste 0 994.7 -- 39
2020-09-14 14:00:00 31 3 Nordeste 16 Sudeste 0 995.1 -- 41
2020-09-14 13:00:00 31.3 4 Este 17 Sudeste 0 995.7 -- 42
2020-09-14 12:00:00 29.5 4 Este 15 Sur 0 996 -- 46
2020-09-14 11:00:00 25.8 3 Este 9 Sudeste 0 996.4 -- 56
2020-09-14 10:00:00 22.5 0 Calma 4 Oeste 0 996 -- 67
2020-09-14 09:00:00 19.4 2 Oeste 5 Este 0 995.8 -- 73
2020-09-14 08:00:00 17.3 0 Calma 3 Sudeste 0 995.1 -- 76
2020-09-14 07:00:00 17.6 0 Calma 6 Sudeste 0 994.9 -- 75
2020-09-14 06:00:00 17.4 0 Calma 9 Oeste 0 994.9 -- 77
2020-09-14 05:00:00 17.7 0 Calma 5 Oeste 0 994.8 -- 71
2020-09-14 04:00:00 19 0 Calma 4 Oeste 0 995 -- 68
2020-09-14 03:00:00 19.8 0 Calma 6 Este 0 995.5 -- 64
2020-09-14 02:00:00 22 4 Sudeste 10 Este 0 996 -- 59
2020-09-14 01:00:00 23.6 5 Noroeste 8 Oeste 0 996 -- 55
2020-09-14 00:00:00 23.8 2 Oeste 8 Oeste 0 995.7 -- 53
2020-09-13 23:00:00 24.9 8 Oeste 10 Oeste 0 995.2 -- 49
2020-09-13 22:00:00 25.1 4 Noroeste 10 Noroeste 0 994.1 -- 46
2020-09-13 21:00:00 25.8 0 Calma 10 Oeste 0 992.9 -- 42
2020-09-13 20:00:00 31.3 2 Sudeste 15 Este 0 992.4 -- 36
2020-09-13 19:00:00 34.5 7 Este 15 Este 0 992.4 -- 32
2020-09-13 18:00:00 34.8 5 Este 23 Sudeste 0 992.6 -- 32
2020-09-13 17:00:00 34.8 4 Este 20 Este 0 992.4 -- 31
2020-09-13 16:00:00 36 8 Este 21 Este 0 993.2 -- 31
2020-09-13 15:00:00 34.2 2 Este 15 Este 0 993.9 -- 33
2020-09-13 14:00:00 33 10 Este 23 Este 0 994.4 -- 35
2020-09-13 13:00:00 33.4 10 Este 24 Este 0 994.6 -- 36
2020-09-13 12:00:00 30.6 12 Este 21 Este 0 995.3 -- 41
2020-09-13 11:00:00 29.5 5 Este 17 Este 0 995.3 -- 45
2020-09-13 10:00:00 24.4 8 Este 14 Este 0 994.8 -- 56
2020-09-13 09:00:00 20.2 0 Calma 3 Noroeste 0 994.7 -- 66
2020-09-13 08:00:00 17.3 0 Calma 5 Este 0 994.2 -- 68
2020-09-13 07:00:00 17.6 2 Este 6 Este 0 993.9 -- 65
2020-09-13 06:00:00 17.5 0 Calma 8 Este 0 993.7 -- 63
2020-09-13 05:00:00 17.9 3 Oeste 5 Este 0 993.7 -- 62
2020-09-13 04:00:00 19.4 2 Sur 8 Este 0 993.6 -- 56
2020-09-13 03:00:00 20.8 0 Calma 5 Sudoeste 0 993.5 -- 53
2020-09-13 02:00:00 22.4 5 Este 9 Este 0 993.5 -- 49
2020-09-13 01:00:00 25.4 2 Sur 10 Oeste 0 993 -- 45
2020-09-13 00:00:00 24.9 6 Noroeste 16 Oeste 0 992.6 -- 45
2020-09-12 23:00:00 27.7 10 Oeste 15 Oeste 0 992.2 -- 42
2020-09-12 22:00:00 27.7 5 Noroeste 22 Oeste 0 990.7 -- 40
2020-09-12 21:00:00 27.3 3 Oeste 5 Sudoeste 0 989.6 -- 39
2020-09-12 20:00:00 31.4 3 Sudoeste 5 Norte 0 989.3 -- 34
2020-09-12 19:00:00 35.5 3 Este 10 Este 0 989.3 -- 29
2020-09-12 18:00:00 36.7 4 Este 13 Sudeste 0 989.4 -- 28
2020-09-12 17:00:00 37.2 4 Este 12 Este 0 989.4 -- 29
2020-09-12 16:00:00 36.6 4 Este 13 Este 0 989.8 -- 29
2020-09-12 15:00:00 36.8 4 Sudeste 22 Este 0 990.3 -- 32
2020-09-12 14:00:00 33.2 10 Este 22 Este 0 990.9 -- 35
2020-09-12 13:00:00 32 6 Este 17 Sudeste 0 991.4 -- 37
2020-09-12 12:00:00 29.6 6 Este 18 Este 0 991.8 -- 40
2020-09-12 11:00:00 26.2 7 Sudeste 16 Este 0 991.8 -- 46
2020-09-12 10:00:00 23.6 2 Este 7 Este 0 991.7 -- 54
2020-09-12 09:00:00 18.5 0 Calma 4 Este 0 991.6 -- 67
2020-09-12 08:00:00 15 0 Calma 3 Este 0 990.9 -- 69
2020-09-12 07:00:00 15.5 0 Calma 6 Este 0 990.3 -- 67
2020-09-12 06:00:00 16.7 0 Calma 7 Este 0 990 -- 65
2020-09-12 05:00:00 16.8 0 Calma 6 Sudeste 0 989.9 -- 64
2020-09-12 04:00:00 18 0 Calma 5 Sudeste 0 989.8 -- 62
2020-09-12 03:00:00 18.6 0 Calma 6 Oeste 0 989.9 -- 63
2020-09-12 02:00:00 20.1 0 Calma 7 Oeste 0 989.6 -- 59
2020-09-12 01:00:00 22 0 Calma 7 Oeste 0 989.3 -- 49
2020-09-12 00:00:00 22.6 0 Calma 10 Noroeste 0 989.1 -- 49
2020-09-11 23:00:00 25.8 6 Oeste 15 Oeste 0 988.5 -- 42
2020-09-11 22:00:00 25.2 0 Calma 6 Norte 0 988 -- 43
2020-09-11 21:00:00 27.5 3 Noroeste 8 Sudoeste 0 987 -- 38
2020-09-11 20:00:00 30.3 4 Sudoeste 13 Sudoeste 0 986.8 -- 34
2020-09-11 19:00:00 33.5 7 Sudoeste 16 Sudoeste 0 986.8 -- 30
2020-09-11 18:00:00 35.7 0 Calma 15 Oeste 0 987.1 -- 28
2020-09-11 17:00:00 35.4 2 Sur 18 Oeste 0 987.7 -- 30
2020-09-11 16:00:00 35.2 5 Oeste 14 Noroeste 0 988.1 -- 32
2020-09-11 15:00:00 33.8 4 Norte 12 Oeste 0 988.9 -- 35
2020-09-11 14:00:00 31.7 2 Oeste 14 Sudoeste 0 989.7 -- 40
2020-09-11 13:00:00 29.1 2 Nordeste 10 Sur 0 990.3 -- 43
2020-09-11 12:00:00 27.9 2 Oeste 9 Este 0 991 -- 46
2020-09-11 11:00:00 24.8 5 Este 14 Sudeste 0 991.2 -- 53
2020-09-11 10:00:00 22 3 Este 6 Este 0 991.1 -- 56
2020-09-11 09:00:00 18 0 Calma 4 Este 0 990.8 -- 67
2020-09-11 08:00:00 14.5 0 Calma 3 Este 0 990.3 -- 74
2020-09-11 07:00:00 15.1 2 Este 8 Este 0 989.9 -- 72
2020-09-11 06:00:00 15.6 2 Este 5 Este 0 989.8 -- 72
2020-09-11 05:00:00 15.1 4 Oeste 6 Oeste 0 989.8 -- 73
2020-09-11 04:00:00 16.6 0 Calma 6 Oeste 0 989.9 -- 71
2020-09-11 03:00:00 17.4 0 Calma 4 Oeste 0 989.8 -- 63
2020-09-11 02:00:00 18.6 0 Calma 3 Este 0 990 -- 60
2020-09-11 01:00:00 20.2 4 Sudeste 8 Este 0 990 -- 58
2020-09-11 00:00:00 21.8 5 Este 8 Sudeste 0 990 -- 52
2020-09-10 23:00:00 22.6 0 Calma 7 Este 0 989.9 -- 49
2020-09-10 22:00:00 24.5 0 Calma 8 Norte 0 989.5 -- 47
2020-09-10 21:00:00 27.9 6 Sudoeste 9 Sudoeste 0 988.9 -- 37
2020-09-10 20:00:00 32 0 Calma 9 Oeste 0 988.7 -- 34
2020-09-10 19:00:00 33.8 2 Sur 13 Sudoeste 0 989 -- 32
2020-09-10 18:00:00 34.3 9 Oeste 19 Oeste 0 989.5 -- 31
2020-09-10 17:00:00 34 4 Sudeste 18 Sudoeste 0 990.2 -- 31
2020-09-10 16:00:00 34.2 5 Oeste 27 Sur 0 991 -- 32
2020-09-10 15:00:00 33 3 Oeste 15 Noroeste 0 992 -- 37
2020-09-10 14:00:00 30.6 4 Sudoeste 14 Noroeste 0 993.1 -- 43
2020-09-10 13:00:00 28.7 5 Oeste 12 Oeste 0 994.2 -- 46
2020-09-10 12:00:00 26.5 4 Noroeste 10 Noroeste 0 995.1 -- 52
2020-09-10 11:00:00 24.7 4 Norte 9 Norte 0 995.5 -- 55
2020-09-10 10:00:00 21.6 3 Este 7 Este 0 995.5 -- 63
2020-09-10 09:00:00 17.4 3 Este 6 Este 0 995 -- 74
2020-09-10 08:00:00 14.7 0 Calma 4 Sudeste 0 994.4 -- 75
2020-09-10 07:00:00 15.1 0 Calma 0 Calma 0 994.1 -- 75
2020-09-10 06:00:00 15.5 0 Calma 4 Oeste 0 994 -- 75
2020-09-10 05:00:00 16.5 0 Calma 5 Sudoeste 0 993.9 -- 70
2020-09-10 04:00:00 17.1 0 Calma 5 Este 0 993.9 -- 68
2020-09-10 03:00:00 17.2 0 Calma 6 Oeste 0 994.1 -- 68
2020-09-10 02:00:00 18.6 2 Este 5 Este 0 994 -- 62
2020-09-10 01:00:00 20 0 Calma 7 Este 0 994.1 -- 58
2020-09-10 00:00:00 21.1 3 Sudeste 9 Este 0 993.9 -- 55
2020-09-09 23:00:00 22.4 0 Calma 6 Sudoeste 0 993.5 -- 50
2020-09-09 22:00:00 25.2 0 Calma 6 Sudoeste 0 993.3 -- 47
2020-09-09 21:00:00 26.8 5 Sudoeste 10 Oeste 0 992.3 -- 44
2020-09-09 20:00:00 29.7 6 Oeste 17 Oeste 0 991.9 -- 39
2020-09-09 19:00:00 31.3 6 Sudoeste 18 Sudoeste 0 992 -- 37
2020-09-09 18:00:00 -- 7 Noroeste 17 Noroeste 0 -- -- --
2020-09-09 17:00:00 32.3 5 Noroeste 18 Este 0 992.6 -- 36
2020-09-09 16:00:00 32.1 8 Oeste 17 Oeste 0 993.3 -- 37
2020-09-09 15:00:00 30.4 6 Oeste 14 Oeste 0 994 -- 43
2020-09-09 14:00:00 29.6 3 Este 13 Sudeste 0 994.9 -- 45
2020-09-09 13:00:00 28.3 5 Este 14 Este 0 995.9 -- 48
2020-09-09 12:00:00 26.6 5 Este 15 Este 0 996.4 -- 53
2020-09-09 11:00:00 24.8 5 Este 15 Este 0 996.8 -- 58
2020-09-09 10:00:00 22.2 6 Este 12 Este 0 996.4 -- 66
2020-09-09 09:00:00 18.9 0 Calma 5 Este 0 996.1 -- 77
2020-09-09 08:00:00 16.4 0 Calma 6 Sudeste 0 995.8 -- 82
2020-09-09 07:00:00 17.4 0 Calma 6 Este 0 995.5 -- 78
2020-09-09 06:00:00 17.8 0 Calma 8 Oeste 0 995.1 -- 79
2020-09-09 05:00:00 18.9 6 Oeste 9 Oeste 0 995 -- 75
2020-09-09 04:00:00 18.7 6 Noroeste 13 Oeste 0 995 -- 73
2020-09-09 03:00:00 20.7 9 Oeste 13 Oeste 0 995.1 -- 66
2020-09-09 02:00:00 21.2 4 Oeste 13 Oeste 0 995.3 -- 63
2020-09-09 01:00:00 21.9 8 Oeste 17 Oeste 0 994.9 -- 61
2020-09-09 00:00:00 -- 11 Oeste 20 Noroeste 0 -- -- --
2020-09-08 23:00:00 25.2 10 Oeste 17 Oeste 0 993.9 -- 53
2020-09-08 22:00:00 25.3 8 Oeste 19 Oeste 0 992.7 -- 52
2020-09-08 21:00:00 27.5 10 Oeste 16 Oeste 0 992.2 -- 44
2020-09-08 20:00:00 29.3 4 Oeste 8 Oeste 0 991.6 -- 38
2020-09-08 19:00:00 31.8 3 Norte 14 Oeste 0 991.6 -- 32
2020-09-08 18:00:00 33.4 5 Oeste 15 Sudoeste 0 991.7 -- 31
2020-09-08 17:00:00 32.4 3 Sudoeste 19 Sudeste 0 992.1 -- 32
2020-09-08 16:00:00 32.8 3 Este 17 Noroeste 0 992.7 -- 34
2020-09-08 15:00:00 31.8 2 Oeste 15 Oeste 0 993.3 -- 40
2020-09-08 14:00:00 30.7 5 Sur 18 Sudoeste 0 993.8 -- 43
2020-09-08 13:00:00 30.9 4 Este 12 Sudeste 0 994.4 -- 43
2020-09-08 12:00:00 29.2 0 Calma 10 Sudeste 0 994.6 -- 46
2020-09-08 11:00:00 25.7 3 Este 9 Este 0 994.9 -- 53
2020-09-08 10:00:00 23.2 2 Sudeste 4 Este 0 994.8 -- 49
2020-09-08 09:00:00 17.3 3 Oeste 4 Oeste 0 994.6 -- 62
2020-09-08 08:00:00 14.7 0 Calma 8 Sudeste 0 993.9 -- 61
2020-09-08 07:00:00 15 4 Oeste 5 Oeste 0 993.2 -- 59
2020-09-08 06:00:00 16.9 2 Noroeste 4 Noroeste 0 992.7 -- 48
2020-09-08 05:00:00 17.2 0 Calma 8 Sudeste 0 992.5 -- 45
2020-09-08 04:00:00 18.4 5 Sudeste 10 Sudeste 0 992.4 -- 44
2020-09-08 03:00:00 18.7 3 Este 8 Este 0 992.3 -- 42
2020-09-08 02:00:00 19.6 0 Calma 7 Este 0 992.4 -- 41
2020-09-08 01:00:00 21.6 3 Sudeste 7 Este 0 992.5 -- 41
2020-09-08 00:00:00 21.7 2 Este 9 Sudeste 0 992.3 -- 44
2020-09-07 23:00:00 24 4 Este 15 Este 0 991.8 -- 40
2020-09-07 22:00:00 26.9 8 Sudeste 15 Sudeste 0 990.9 -- 36
2020-09-07 21:00:00 28.4 9 Este 17 Sudeste 0 989.5 -- 35
2020-09-07 20:00:00 31.7 12 Este 22 Este 0 988.8 -- 32
2020-09-07 19:00:00 34.7 3 Este 15 Sur 0 988.2 -- 31
2020-09-07 18:00:00 36.1 4 Este 14 Sudoeste 0 988.4 -- 32
2020-09-07 17:00:00 34.5 5 Oeste 20 Oeste 0 988.7 -- 35
2020-09-07 16:00:00 34.2 10 Oeste 18 Oeste 0 989.2 -- 36
2020-09-07 15:00:00 33.4 6 Sudoeste 17 Sudoeste 0 989.9 -- 36
2020-09-07 14:00:00 32.4 4 Nordeste 13 Oeste 0 990.7 -- 40
2020-09-07 13:00:00 30.9 5 Noroeste 22 Oeste 0 991.5 -- 49
2020-09-07 12:00:00 27.8 7 Oeste 16 Oeste 0 992.1 -- 55
2020-09-07 11:00:00 25.9 7 Noroeste 14 Oeste 0 991.9 -- 62
2020-09-07 10:00:00 24.4 5 Oeste 9 Oeste 0 991.7 -- 67
2020-09-07 09:00:00 21.9 3 Oeste 8 Sudoeste 0 991.2 -- 78
2020-09-07 08:00:00 18.9 5 Sudoeste 9 Sudoeste 0 990.8 -- 86
2020-09-07 07:00:00 18.8 0 Calma 8 Oeste 0 990.6 -- 84
2020-09-07 06:00:00 19.1 3 Noroeste 10 Noroeste 0 990.2 -- 82
2020-09-07 05:00:00 19.8 5 Oeste 11 Noroeste 0 990.6 -- 78
2020-09-07 04:00:00 21.6 8 Noroeste 18 Oeste 0 990.4 -- 72
2020-09-07 03:00:00 22.1 3 Sudoeste 13 Oeste 0 990.7 -- 66
2020-09-07 02:00:00 23.6 5 Noroeste 19 Oeste 0 990.4 -- 60
2020-09-07 01:00:00 26 14 Oeste 28 Sudoeste 0 989.8 -- 51
2020-09-07 00:00:00 27.3 15 Oeste 24 Oeste 0 989.3 -- 49
2020-09-06 23:00:00 25.6 5 Noroeste 11 Oeste 0 988.9 -- 48
2020-09-06 22:00:00 27.3 8 Oeste 17 Oeste 0 988.2 -- 43
2020-09-06 21:00:00 29.3 10 Oeste 13 Sudoeste 0 987.5 -- 39
2020-09-06 20:00:00 32.1 7 Oeste 16 Oeste 0 987.3 -- 37
2020-09-06 19:00:00 34.7 6 Oeste 16 Noroeste 0 987.4 -- 34
2020-09-06 18:00:00 35.9 6 Noroeste 14 Oeste 0 987.7 -- 34
2020-09-06 17:00:00 36.1 6 Sudoeste 18 Noroeste 0 988.1 -- 34
2020-09-06 16:00:00 34.7 6 Noroeste 17 Noroeste 0 988.8 -- 37
2020-09-06 15:00:00 34 5 Noroeste 16 Noroeste 0 989.7 -- 40
2020-09-06 14:00:00 32.8 0 Calma 14 Sudeste 0 990.4 -- 41
2020-09-06 13:00:00 30.4 4 Este 14 Sudeste 0 991.1 -- 44
2020-09-06 12:00:00 28.6 6 Sudeste 13 Este 0 991.6 -- 49
2020-09-06 11:00:00 27 0 Calma 9 Sudeste 0 991.7 -- 53
2020-09-06 10:00:00 23.1 3 Sudeste 7 Sudeste 0 991.7 -- 64
2020-09-06 09:00:00 19.6 3 Este 4 Este 0 991.7 -- 75
2020-09-06 08:00:00 17.4 0 Calma 5 Noroeste 0 991.3 -- 80
2020-09-06 07:00:00 17.7 4 Oeste 13 Sudoeste 0 990.8 -- 78
2020-09-06 06:00:00 21.8 10 Sudoeste 16 Sudoeste 0 990.6 -- 65
2020-09-06 05:00:00 20.6 6 Oeste 14 Oeste 0 990.8 -- 67
2020-09-06 04:00:00 19.4 8 Oeste 13 Oeste 0 991 -- 68
2020-09-06 03:00:00 21.2 8 Oeste 11 Oeste 0 991.1 -- 63
2020-09-06 02:00:00 20.7 0 Calma 6 Sudeste 0 991.2 -- 58
2020-09-06 01:00:00 21.6 0 Calma 5 Sudeste 0 991 -- 54
2020-09-06 00:00:00 22.9 3 Sudeste 8 Oeste 0 990.3 -- 50
2020-09-05 23:00:00 25.6 7 Oeste 13 Oeste 0 989.9 -- 46
2020-09-05 22:00:00 25.5 3 Noroeste 8 Noroeste 0 989.6 -- 44
2020-09-05 21:00:00 28.4 3 Oeste 8 Oeste 0 988.8 -- 36
2020-09-05 20:00:00 32.6 4 Sudoeste 12 Oeste 0 988.7 -- 32
2020-09-05 19:00:00 34.6 6 Sudoeste 15 Oeste 0 989.1 -- 29
2020-09-05 18:00:00 36 4 Oeste 16 Sudoeste 0 989.5 -- 28
2020-09-05 17:00:00 36.5 4 Oeste 13 Oeste 0 990.1 -- 28
2020-09-05 16:00:00 35.1 5 Oeste 14 Noroeste 0 991 -- 32
2020-09-05 15:00:00 32.9 4 Noroeste 10 Noroeste 0 992.1 -- 34
2020-09-05 14:00:00 33 0 Calma 9 Noroeste 0 993.1 -- 40
2020-09-05 13:00:00 29.8 3 Sudeste 12 Este 0 993.9 -- 44
2020-09-05 12:00:00 27.6 5 Este 12 Este 0 994.7 -- 50
2020-09-05 11:00:00 25.4 4 Este 10 Este 0 995 -- 54
2020-09-05 10:00:00 22.3 4 Este 9 Este 0 995.1 -- 60
2020-09-05 09:00:00 17.7 0 Calma 6 Este 0 995.2 -- 76
2020-09-05 08:00:00 14.9 0 Calma 4 Sudeste 0 995 -- 78
2020-09-05 07:00:00 15.8 0 Calma 4 Sudoeste 0 994.7 -- 76
2020-09-05 06:00:00 16.7 0 Calma 5 Sudeste 0 994.5 -- 73
2020-09-05 05:00:00 18.4 2 Este 6 Noroeste 0 994.8 -- 68
2020-09-05 04:00:00 19.5 7 Oeste 11 Sudoeste 0 995.1 -- 66
2020-09-05 03:00:00 20.6 3 Oeste 13 Oeste 0 995.2 -- 64
2020-09-05 02:00:00 22 11 Oeste 19 Oeste 0 995.3 -- 58
2020-09-05 01:00:00 23.3 10 Oeste 18 Oeste 0 995.5 -- 55
2020-09-05 00:00:00 22.1 7 Oeste 16 Oeste 0 995 -- 52
2020-09-04 23:00:00 24 9 Oeste 13 Norte 0 994.5 -- 49
2020-09-04 22:00:00 27.3 12 Oeste 26 Sudoeste 0 993.8 -- 40
2020-09-04 21:00:00 28 3 Oeste 8 Oeste 0 992.8 -- 35
2020-09-04 20:00:00 31.7 5 Oeste 10 Oeste 0 992.6 -- 34
2020-09-04 19:00:00 34 4 Noroeste 10 Sudoeste 0 992.8 -- 29
2020-09-04 18:00:00 34.5 8 Sudoeste 17 Sudeste 0 993.2 -- 28
2020-09-04 17:00:00 36.2 4 Sur 14 Este 0 993.7 -- 25
2020-09-04 16:00:00 34.8 6 Este 17 Sur 0 994.3 -- 28
2020-09-04 15:00:00 34.4 6 Sudeste 21 Sudeste 0 995.3 -- 30
2020-09-04 14:00:00 33 5 Sudeste 26 Sudeste 0 995.9 -- 33
2020-09-04 13:00:00 30.8 7 Este 20 Sudeste 0 996.8 -- 38
2020-09-04 12:00:00 28.7 8 Este 20 Este 0 997.4 -- 44
2020-09-04 11:00:00 27 12 Este 20 Este 0 997.4 -- 51
2020-09-04 10:00:00 24.6 0 Calma 6 Sudeste 0 997.1 -- 62
2020-09-04 09:00:00 17.9 3 Oeste 8 Noroeste 0 996.8 -- 80
2020-09-04 08:00:00 15.1 3 Noroeste 4 Noroeste 0 996.2 -- 81
2020-09-04 07:00:00 15.9 2 Sudeste 5 Este 0 995.9 -- 73
2020-09-04 06:00:00 16.4 0 Calma 4 Sudeste 0 995.8 -- 72
2020-09-04 05:00:00 17.4 0 Calma 4 Este 0 995.6 -- 69
2020-09-04 04:00:00 18.3 2 Sudeste 8 Oeste 0 995.7 -- 69
2020-09-04 03:00:00 19 0 Calma 6 Sudeste 0 995.9 -- 66
2020-09-04 02:00:00 19.6 4 Sudeste 6 Este 0 996.4 -- 61
2020-09-04 01:00:00 21.3 3 Este 5 Oeste 0 996.4 -- 56
2020-09-04 00:00:00 22.2 5 Oeste 9 Noroeste 0 995.8 -- 55
2020-09-03 23:00:00 24.3 7 Noroeste 18 Oeste 0 995.2 -- 50
2020-09-03 22:00:00 26.5 14 Oeste 20 Oeste 0 993.9 -- 44
2020-09-03 21:00:00 26.9 0 Calma 5 Este 0 992.8 -- 38
2020-09-03 20:00:00 32.5 0 Calma 10 Sudeste 0 992.4 -- 32
2020-09-03 19:00:00 33.9 6 Este 15 Este 0 992.4 -- 30
2020-09-03 18:00:00 35.5 6 Este 18 Sudeste 0 992.6 -- 28
2020-09-03 17:00:00 34.5 0 Calma 19 Este 0 992.9 -- 30
2020-09-03 16:00:00 35.7 6 Sudeste 17 Este 0 993.6 -- 30
2020-09-03 15:00:00 34.1 5 Este 19 Sudeste 0 994.3 -- 35
2020-09-03 14:00:00 32.7 6 Este 16 Este 0 994.7 -- 39
2020-09-03 13:00:00 30.7 5 Sudeste 17 Este 0 995.2 -- 45
2020-09-03 12:00:00 27.9 7 Este 17 Este 0 995.8 -- 49
2020-09-03 11:00:00 24.8 9 Este 16 Este 0 995.9 -- 56
2020-09-03 10:00:00 22.6 3 Este 9 Este 0 995.5 -- 57
2020-09-03 09:00:00 16.9 2 Este 7 Este 0 995.3 -- 72
2020-09-03 08:00:00 13.9 0 Calma 5 Sudeste 0 994.5 -- 73
2020-09-03 07:00:00 14.5 0 Calma 3 Sudeste 0 994 -- 75
2020-09-03 06:00:00 15.6 0 Calma 3 Sudeste 0 993.6 -- 72
2020-09-03 05:00:00 16.4 2 Este 13 Sudeste 0 993.4 -- 68
2020-09-03 04:00:00 18.6 3 Este 12 Oeste 0 993.1 -- 61
2020-09-03 03:00:00 18.6 6 Oeste 9 Oeste 0 992.9 -- 63
2020-09-03 02:00:00 18.4 7 Oeste 9 Oeste 0 992.9 -- 63
2020-09-03 01:00:00 20.3 0 Calma 10 Oeste 0 992.5 -- 50
2020-09-03 00:00:00 21.5 0 Calma 9 Noroeste 0 992 -- 47
2020-09-02 23:00:00 23.9 9 Noroeste 17 Oeste 0 991.1 -- 43
2020-09-02 22:00:00 23.4 0 Calma 9 Noroeste 0 990.1 -- 44
2020-09-02 21:00:00 26.5 3 Noroeste 9 Sudoeste 0 989.4 -- 35
2020-09-02 20:00:00 30.2 6 Sudoeste 13 Sudoeste 0 988.8 -- 32
2020-09-02 19:00:00 32.5 3 Sudoeste 14 Sudoeste 0 988.5 -- 29
2020-09-02 18:00:00 34.1 4 Oeste 18 Oeste 0 988.5 -- 28
2020-09-02 17:00:00 33.1 5 Oeste 17 Sudoeste 0 988.6 -- 28
2020-09-02 16:00:00 33.5 7 Noroeste 19 Noroeste 0 988.9 -- 31
2020-09-02 15:00:00 32.3 6 Oeste 16 Oeste 0 989.3 -- 35
2020-09-02 14:00:00 30.9 0 Calma 10 Noroeste 0 989.8 -- 36
2020-09-02 13:00:00 30.4 0 Calma 8 Este 0 990.3 -- 35
2020-09-02 12:00:00 26.4 3 Este 12 Este 0 990.7 -- 44
2020-09-02 11:00:00 24.3 5 Sudeste 13 Este 0 990.6 -- 53
2020-09-02 10:00:00 21.1 5 Este 10 Este 0 990.3 -- 61
2020-09-02 09:00:00 16.7 0 Calma 5 Sur 0 990 -- 73
2020-09-02 08:00:00 13.4 0 Calma 5 Este 0 989.5 -- 75
2020-09-02 07:00:00 14.5 0 Calma 4 Este 0 989 -- 73
2020-09-02 06:00:00 15.8 0 Calma 4 Noroeste 0 988.7 -- 69
2020-09-02 05:00:00 17.3 0 Calma 4 Oeste 0 988.6 -- 65
2020-09-02 04:00:00 16.8 4 Oeste 5 Oeste 0 988.3 -- 66
2020-09-02 03:00:00 17.6 0 Calma 5 Sur 0 988.3 -- 65
2020-09-02 02:00:00 17.7 0 Calma 5 Este 0 988.2 -- 67
2020-09-02 01:00:00 18.8 4 Este 5 Este 0 987.3 -- 63
2020-09-02 00:00:00 21 0 Calma 5 Sudeste 0 987.4 -- 55
2020-09-01 23:00:00 21.6 0 Calma 5 Noroeste 0 987 -- 53
2020-09-01 22:00:00 23.3 0 Calma 6 Noroeste 0 986.9 -- 47
2020-09-01 21:00:00 26 3 Sudoeste 7 Oeste 0 986.2 -- 41
2020-09-01 20:00:00 28 6 Oeste 13 Oeste 0 986 -- 39
2020-09-01 19:00:00 28.3 7 Noroeste 18 Oeste 0 986.2 -- 40
2020-09-01 18:00:00 29.7 8 Oeste 18 Noroeste 0 986.6 -- 40
2020-09-01 17:00:00 29.9 7 Oeste 17 Sudoeste 0 987 -- 40
2020-09-01 16:00:00 28.3 9 Oeste 25 Noroeste 0 988 -- 43
2020-09-01 15:00:00 28 10 Oeste 19 Oeste 0 989 -- 47
2020-09-01 14:00:00 24.4 2 Noroeste 9 Oeste 0 989.4 -- 50
2020-09-01 13:00:00 23.4 2 Oeste 10 Este 0 990.2 -- 55
2020-09-01 12:00:00 22.1 3 Este 9 Este 0 990.3 -- 55
2020-09-01 11:00:00 20.4 2 Este 8 Sudeste 0 990.8 -- 55
2020-09-01 10:00:00 17.6 3 Sudeste 6 Sudeste 0 990.5 -- 61
2020-09-01 09:00:00 15.3 0 Calma 4 Oeste 0 990.3 -- 69
2020-09-01 08:00:00 12.8 0 Calma 5 Este 0 990 -- 73
2020-09-01 07:00:00 13 0 Calma 5 Sudeste 0 989.9 -- 72
2020-09-01 06:00:00 14.1 0 Calma 7 Este 0 989.8 -- 69
2020-09-01 05:00:00 14.3 5 Sudeste 8 Este 0 989.9 -- 66
2020-09-01 04:00:00 15.9 3 Oeste 5 Oeste 0 990.4 -- 63
2020-09-01 03:00:00 15.7 0 Calma 4 Oeste 0 990.8 -- 64
2020-09-01 02:00:00 16.8 2 Oeste 6 Sudeste 0 991 -- 57
2020-09-01 01:00:00 18.2 0 Calma 6 Sudeste 0 990.9 -- 50
2020-09-01 00:00:00 19.4 2 Este 9 Oeste 0 990.6 -- 47
2020-08-31 23:00:00 20.1 6 Oeste 9 Oeste 0 990 -- 44
2020-08-31 22:00:00 22.4 0 Calma 5 Oeste 0 989.1 -- 36
2020-08-31 21:00:00 25.4 2 Sudoeste 5 Sudoeste 0 988.7 -- 31
2020-08-31 20:00:00 30.2 4 Sudoeste 9 Sudoeste 0 988.6 -- 28
2020-08-31 19:00:00 31.6 0 Calma 16 Oeste 0 989.2 -- 28
2020-08-31 18:00:00 32.3 3 Norte 18 Norte 0 989.4 -- 25
2020-08-31 17:00:00 32.4 6 Oeste 16 Oeste 0 989.9 -- 27
2020-08-31 16:00:00 32.1 7 Noroeste 17 Noroeste 0 990.7 -- 29
2020-08-31 15:00:00 31.1 8 Oeste 17 Oeste 0 991.6 -- 30
2020-08-31 14:00:00 30.8 3 Este 16 Sudeste 0 992.3 -- 30
2020-08-31 13:00:00 28.8 8 Sudeste 17 Este 0 993 -- 37
2020-08-31 12:00:00 26.1 10 Este 22 Sudeste 0 993.5 -- 45
2020-08-31 11:00:00 23.8 9 Este 16 Sudeste 0 993.8 -- 47
2020-08-31 10:00:00 21.2 0 Calma 10 Este 0 993.3 -- 48
2020-08-31 09:00:00 15.7 0 Calma 3 Noroeste 0 993 -- 55
2020-08-31 08:00:00 13.2 2 Oeste 7 Oeste 0 992.9 -- 58
2020-08-31 07:00:00 11.9 4 Noroeste 7 Oeste 0 992.1 -- 62
2020-08-31 06:00:00 13.7 0 Calma 10 Sudeste 0 991.6 -- 54
2020-08-31 05:00:00 15.4 3 Este 10 Este 0 991.4 -- 48
2020-08-31 04:00:00 13.8 0 Calma 3 Noroeste 0 991.4 -- 54
2020-08-31 03:00:00 15.7 0 Calma 6 Este 0 991.7 -- 50
2020-08-31 02:00:00 16.4 3 Este 5 Este 0 991.7 -- 47
2020-08-31 01:00:00 17.4 3 Sudeste 7 Sudeste 0 991.4 -- 44
2020-08-31 00:00:00 19.5 2 Sudeste 8 Sudeste 0 990.9 -- 41
2020-08-30 23:00:00 20.7 0 Calma 9 Este 0 990 -- 39
2020-08-30 22:00:00 23.3 4 Sudeste 16 Nordeste 0 988.9 -- 35
2020-08-30 21:00:00 26.9 5 Nordeste 13 Nordeste 0 987.6 -- 32
2020-08-30 20:00:00 28.5 5 Este 12 Este 0 986.9 -- 30
2020-08-30 19:00:00 30.3 4 Este 14 Nordeste 0 986.4 -- 29
2020-08-30 18:00:00 30.4 5 Sudeste 17 Sudeste 0 986.4 -- 28
2020-08-30 17:00:00 30.4 2 Norte 14 Sudeste 0 986.5 -- 28
2020-08-30 16:00:00 30.3 6 Sudeste 20 Este 0 987 -- 29
2020-08-30 15:00:00 30.5 4 Este 21 Este 0 987.4 -- 30
2020-08-30 14:00:00 28.2 7 Este 25 Este 0 988 -- 34
2020-08-30 13:00:00 26.6 9 Este 24 Este 0 988.8 -- 37
2020-08-30 12:00:00 24.8 10 Este 23 Este 0 989 -- 43
2020-08-30 11:00:00 22.2 11 Este 19 Este 0 989.1 -- 47
2020-08-30 10:00:00 18.8 6 Este 15 Este 0 988.9 -- 54
2020-08-30 09:00:00 16.1 4 Sudeste 9 Este 0 988.5 -- 58
2020-08-30 08:00:00 13.8 5 Este 6 Sudeste 0 988.1 -- 59
2020-08-30 07:00:00 13.7 3 Este 4 Este 0 987.5 -- 57
2020-08-30 06:00:00 13.6 3 Este 5 Este 0 987.4 -- 58
2020-08-30 05:00:00 14.4 2 Este 5 Sudeste 0 987.3 -- 55
2020-08-30 04:00:00 15.2 0 Calma 5 Este 0 987 -- 52
2020-08-30 03:00:00 15.7 2 Sudeste 4 Este 0 986.8 -- 50
2020-08-30 02:00:00 15.9 2 Este 8 Este 0 986.5 -- 47
2020-08-30 01:00:00 17.8 0 Calma 7 Sudeste 0 985.8 -- 43
2020-08-30 00:00:00 20.4 2 Sudeste 8 Este 0 985.4 -- 38
2020-08-29 23:00:00 20.6 2 Sudeste 9 Norte 0 984.6 -- 37
2020-08-29 22:00:00 23.8 2 Norte 14 Nordeste 0 983.6 -- 34
2020-08-29 21:00:00 26.2 6 Norte 20 Nordeste 0 982.7 -- 32
2020-08-29 20:00:00 28.2 7 Norte 22 Noroeste 0 981.9 -- 30
2020-08-29 19:00:00 28.9 3 Oeste 19 Oeste 0 981.5 -- 35
2020-08-29 18:00:00 27.6 8 Oeste 19 Sudoeste 0 981.4 -- 36
2020-08-29 17:00:00 29 10 Oeste 24 Oeste 0 981.3 -- 34
2020-08-29 16:00:00 28.6 12 Oeste 31 Oeste 0 981.9 -- 37
2020-08-29 15:00:00 27.6 12 Sudoeste 30 Sudoeste 0 982.3 -- 38
2020-08-29 14:00:00 26.6 12 Noroeste 24 Oeste 0 982.6 -- 41
2020-08-29 13:00:00 25.3 12 Oeste 25 Oeste 0 982.9 -- 44
2020-08-29 12:00:00 24.3 12 Oeste 21 Oeste 0 983.2 -- 48
2020-08-29 11:00:00 23.3 7 Sudoeste 21 Oeste 0 983.1 -- 50
2020-08-29 10:00:00 20.4 14 Oeste 22 Oeste 0 983 -- 55
2020-08-29 09:00:00 18.5 12 Oeste 18 Sudoeste 0 982.7 -- 58
2020-08-29 08:00:00 17.6 12 Sudoeste 20 Sudoeste 0 982.3 -- 58
2020-08-29 07:00:00 18.4 13 Sudoeste 22 Oeste 0 981.9 -- 57
2020-08-29 06:00:00 17.1 8 Oeste 17 Oeste 0 981.8 -- 56
2020-08-29 05:00:00 18.2 6 Noroeste 20 Sudoeste 0 981.8 -- 50
2020-08-29 04:00:00 21 13 Oeste 20 Oeste 0 981.9 -- 44
2020-08-29 03:00:00 20.8 10 Oeste 22 Oeste 0 982.1 -- 41
2020-08-29 02:00:00 21 7 Noroeste 17 Oeste 0 982 -- 39
2020-08-29 01:00:00 24.5 12 Oeste 23 Oeste 0 982.1 -- 33
2020-08-29 00:00:00 26.1 11 Oeste 20 Oeste 0 981.8 -- 34
2020-08-28 23:00:00 25.7 9 Oeste 19 Oeste 0 982 -- 41
2020-08-28 22:00:00 26.7 9 Oeste 15 Oeste 0 981.4 -- 41
2020-08-28 21:00:00 30.3 14 Oeste 35 Oeste 0 980.9 -- 37
2020-08-28 20:00:00 32.4 21 Oeste 37 Oeste 0 981 -- 38
2020-08-28 19:00:00 33.7 18 Oeste 39 Sudoeste 0 981.2 -- 36
2020-08-28 18:00:00 34.8 22 Oeste 38 Oeste 0 981.1 -- 34
2020-08-28 17:00:00 34.2 21 Oeste 34 Oeste 0 981.7 -- 37
2020-08-28 16:00:00 34.3 18 Oeste 34 Oeste 0 982.3 -- 40
2020-08-28 15:00:00 34.1 14 Oeste 32 Sudoeste 0 983.4 -- 43
2020-08-28 14:00:00 33.3 16 Oeste 33 Oeste 0 984.3 -- 46
2020-08-28 13:00:00 31.1 13 Oeste 28 Sudoeste 0 985.4 -- 49
2020-08-28 12:00:00 29.4 11 Oeste 22 Oeste 0 986.1 -- 53
2020-08-28 11:00:00 27.3 10 Oeste 18 Oeste 0 986.4 -- 56
2020-08-28 10:00:00 25.3 7 Noroeste 11 Noroeste 0 986.3 -- 61
2020-08-28 09:00:00 22.6 3 Noroeste 10 Noroeste 0 986.5 -- 70
2020-08-28 08:00:00 20.4 0 Calma 7 Noroeste 0 986.3 -- 68
2020-08-28 07:00:00 21.2 3 Noroeste 8 Noroeste 0 986.2 -- 67
2020-08-28 06:00:00 20 6 Noroeste 7 Noroeste 0 986.4 -- 67
2020-08-28 05:00:00 22.4 2 Noroeste 4 Oeste 0 986.6 -- 58
2020-08-28 04:00:00 23 3 Sudoeste 9 Oeste 0 986.8 -- 55
2020-08-28 03:00:00 23.3 2 Oeste 9 Oeste 0 987.3 -- 51
2020-08-28 02:00:00 24.7 7 Oeste 12 Oeste 0 987.7 -- 48
2020-08-28 01:00:00 25.1 4 Sudeste 9 Noroeste 0 987.7 -- 43
2020-08-28 00:00:00 25.6 5 Oeste 17 Oeste 0 987.7 -- 40
2020-08-27 23:00:00 29.2 9 Oeste 18 Oeste 0 988 -- 32
2020-08-27 22:00:00 29.9 6 Oeste 14 Oeste 0 987.6 -- 32
2020-08-27 21:00:00 32.5 10 Oeste 21 Oeste 0 987.3 -- 29
2020-08-27 20:00:00 34.2 12 Oeste 26 Oeste 0 987 -- 30
2020-08-27 19:00:00 36.4 16 Noroeste 36 Oeste 0 987.3 -- 28
2020-08-27 18:00:00 37.9 14 Oeste 28 Oeste 0 988 -- 28
2020-08-27 17:00:00 37.9 12 Oeste 28 Oeste 0 988.5 -- 29
2020-08-27 16:00:00 38.2 9 Oeste 20 Oeste 0 989.5 -- 30
2020-08-27 15:00:00 38.6 6 Oeste 19 Oeste 0 990.5 -- 30
2020-08-27 14:00:00 36.7 2 Noroeste 11 Noroeste 0 991.4 -- 31
2020-08-27 13:00:00 34.6 3 Noroeste 8 Noroeste 0 992.4 -- 36
2020-08-27 12:00:00 33.3 0 Calma 7 Sudeste 0 992.9 -- 39
2020-08-27 11:00:00 29.1 4 Este 13 Este 0 993.2 -- 45
2020-08-27 10:00:00 25 4 Este 8 Este 0 993.2 -- 55
2020-08-27 09:00:00 21.1 2 Este 5 Este 0 993.2 -- 65
2020-08-27 08:00:00 18.5 0 Calma 4 Sudeste 0 992.9 -- 70
2020-08-27 07:00:00 19 3 Sudeste 6 Este 0 992.8 -- 65
2020-08-27 06:00:00 19.9 3 Este 4 Oeste 0 992.5 -- 61
2020-08-27 05:00:00 20.7 0 Calma 5 Este 0 992.8 -- 59
2020-08-27 04:00:00 21.4 0 Calma 7 Este 0 993 -- 53
2020-08-27 03:00:00 23.2 5 Este 9 Oeste 0 992.9 -- 49
2020-08-27 02:00:00 23.2 7 Oeste 10 Oeste 0 992.9 -- 50
2020-08-27 01:00:00 26.3 0 Calma 10 Oeste 0 992.7 -- 44
2020-08-27 00:00:00 28.4 6 Oeste 17 Oeste 0 992.5 -- 38
2020-08-26 23:00:00 29.3 0 Calma 6 Noroeste 0 992.4 -- 35
2020-08-26 22:00:00 30.2 4 Noroeste 14 Oeste 0 991.5 -- 34
2020-08-26 21:00:00 33.8 10 Oeste 15 Sudoeste 0 990.6 -- 32
2020-08-26 20:00:00 35.6 9 Sudoeste 17 Sudoeste 0 990.3 -- 29
2020-08-26 19:00:00 37.9 8 Sudoeste 17 Sudoeste 0 990.5 -- 28
2020-08-26 18:00:00 38.8 6 Oeste 18 Sudoeste 0 990.8 -- 29
2020-08-26 17:00:00 38.9 9 Sudoeste 22 Oeste 0 991.2 -- 29
2020-08-26 16:00:00 37.5 9 Noroeste 22 Oeste 0 991.8 -- 31
2020-08-26 15:00:00 37.4 6 Noroeste 18 Noroeste 0 992.3 -- 33
2020-08-26 14:00:00 36.1 2 Noroeste 11 Noroeste 0 992.8 -- 37
2020-08-26 13:00:00 33.5 3 Nordeste 10 Oeste 0 993.8 -- 44
2020-08-26 12:00:00 31.5 5 Oeste 10 Noroeste 0 994 -- 49
2020-08-26 11:00:00 29.9 0 Calma 8 Nordeste 0 994.1 -- 52
2020-08-26 10:00:00 26.9 3 Este 9 Este 0 993.7 -- 58
2020-08-26 09:00:00 22.5 0 Calma 3 Sur 0 993.6 -- 68
2020-08-26 08:00:00 18.9 0 Calma 6 Este 0 993.1 -- 76
2020-08-26 07:00:00 20.1 5 Sudeste 6 Este 0 992.6 -- 65
2020-08-26 06:00:00 20.8 0 Calma 3 Oeste 0 992.2 -- 61
2020-08-26 05:00:00 20.4 0 Calma 0 Calma 0 992.3 -- 59
2020-08-26 04:00:00 20.4 0 Calma 3 Noroeste 0 992.3 -- 58
2020-08-26 03:00:00 20.7 0 Calma 4 Este 0 992.1 -- 58
2020-08-26 02:00:00 21.9 0 Calma 6 Noroeste 0 991.8 -- 56
2020-08-26 01:00:00 22.6 3 Oeste 6 Sudoeste 0 991.3 -- 55
2020-08-26 00:00:00 24.5 2 Este 5 Sudeste 0 990.8 -- 45
2020-08-25 23:00:00 26.5 3 Sudeste 5 Sudeste 0 990.2 -- 41
2020-08-25 22:00:00 28.2 0 Calma 8 Norte 0 989.2 -- 39
2020-08-25 21:00:00 30.9 4 Oeste 13 Oeste 0 988.2 -- 36
2020-08-25 20:00:00 34.4 10 Oeste 16 Oeste 0 987.9 -- 35
2020-08-25 19:00:00 36 9 Noroeste 22 Oeste 0 988.2 -- 33
2020-08-25 18:00:00 37.1 10 Noroeste 21 Oeste 0 988.3 -- 33
2020-08-25 17:00:00 37.6 7 Noroeste 23 Oeste 0 988.6 -- 34
2020-08-25 16:00:00 37.5 5 Oeste 18 Noroeste 0 989.2 -- 34
2020-08-25 15:00:00 37.1 6 Oeste 17 Norte 0 990 -- 35
2020-08-25 14:00:00 34.2 4 Oeste 10 Noroeste 0 990.5 -- 41
2020-08-25 13:00:00 33.5 3 Sudoeste 11 Sudoeste 0.1 991.1 -- 50
2020-08-25 12:00:00 31.3 3 Oeste 8 Noroeste 0.1 991.7 -- 51
2020-08-25 11:00:00 28.9 0 Calma 8 Este 0 991.7 -- 58
2020-08-25 10:00:00 26.1 4 Sudeste 6 Sudeste 0 991.6 -- 66
2020-08-25 09:00:00 21.7 0 Calma 7 Este 0 991.3 -- 80
2020-08-25 08:00:00 19.8 3 Este 4 Este 0 990.9 -- 82
2020-08-25 07:00:00 20.1 0 Calma 4 Sudeste 0 990.5 -- 81
2020-08-25 06:00:00 20.2 0 Calma 0 Calma 0 990.5 -- 78
2020-08-25 05:00:00 21 0 Calma 6 Oeste 0 990.5 -- 76
2020-08-25 04:00:00 21.9 0 Calma 6 Oeste 0 990.3 -- 66
2020-08-25 03:00:00 22.9 4 Noroeste 9 Noroeste 0 990.2 -- 63
2020-08-25 02:00:00 22.8 8 Noroeste 9 Noroeste 0 989.9 -- 57
2020-08-25 01:00:00 22.9 3 Oeste 8 Oeste 0 989.7 -- 52
2020-08-25 00:00:00 24.1 0 Calma 3 Noroeste 0 989.1 -- 48
2020-08-24 23:00:00 25.3 3 Este 8 Noroeste 0 988.7 -- 44
2020-08-24 22:00:00 27.6 0 Calma 11 Oeste 0 988 -- 41
2020-08-24 21:00:00 30.6 9 Oeste 13 Oeste 0 987.2 -- 36
2020-08-24 20:00:00 34.1 10 Oeste 20 Oeste 0 987.2 -- 33
2020-08-24 19:00:00 35.5 8 Oeste 20 Noroeste 0 987.5 -- 33
2020-08-24 18:00:00 36.2 10 Noroeste 25 Noroeste 0 988 -- 31
2020-08-24 17:00:00 36 10 Oeste 19 Oeste 0 988.4 -- 28
2020-08-24 16:00:00 36.3 9 Noroeste 21 Oeste 0 989 -- 33
2020-08-24 15:00:00 33.9 9 Noroeste 16 Oeste 0 989.8 -- 36
2020-08-24 14:00:00 32.5 5 Noroeste 17 Noroeste 0 990.3 -- 40
2020-08-24 13:00:00 30.4 7 Noroeste 17 Noroeste 0 991.4 -- 44
2020-08-24 12:00:00 28.3 5 Noroeste 12 Noroeste 0 992.1 -- 47
2020-08-24 11:00:00 28 2 Sudeste 7 Este 0 992.3 -- 39
2020-08-24 10:00:00 23.2 4 Este 6 Este 0 992.2 -- 47
2020-08-24 09:00:00 18.8 2 Este 6 Este 0 992 -- 57
2020-08-24 08:00:00 15.5 2 Este 4 Sudeste 0 991.6 -- 63
2020-08-24 07:00:00 15.8 0 Calma 5 Este 0 990.9 -- 55
2020-08-24 06:00:00 16.5 0 Calma 3 Noroeste 0 991 -- 51
2020-08-24 05:00:00 16.8 0 Calma 3 Sudeste 0 990.8 -- 49
2020-08-24 04:00:00 17.9 0 Calma 3 Oeste 0 990.6 -- 47
2020-08-24 03:00:00 18.5 0 Calma 4 Este 0 990.6 -- 43
2020-08-24 02:00:00 19.7 3 Oeste 9 Este 0 990.6 -- 42
2020-08-24 01:00:00 21.5 0 Calma 6 Norte 0 990.4 -- 37
2020-08-24 00:00:00 23.1 0 Calma 9 Norte 0 990.1 -- 33
2020-08-23 23:00:00 27.8 4 Sudoeste 14 Sudoeste 0 990 -- 27
2020-08-23 22:00:00 30.6 11 Oeste 17 Oeste 0 989.6 -- 24
2020-08-23 21:00:00 31.2 10 Oeste 14 Oeste 0 989.1 -- 26
2020-08-23 20:00:00 35.2 10 Sudoeste 22 Oeste 0 988.9 -- 24
2020-08-23 19:00:00 37.4 9 Oeste 22 Sudoeste 0 989.2 -- 23
2020-08-23 18:00:00 37.3 8 Oeste 26 Sudoeste 0 989.4 -- 23
2020-08-23 17:00:00 38 15 Sudoeste 27 Sudoeste 0 989.9 -- 22
2020-08-23 16:00:00 37.3 14 Oeste 23 Oeste 0 990.9 -- 27
2020-08-23 15:00:00 36.5 6 Oeste 20 Sudoeste 0 991.5 -- 28
2020-08-23 14:00:00 36.6 2 Noroeste 10 Noroeste 0 992.2 -- 27
2020-08-23 13:00:00 34.5 2 Noroeste 7 Noroeste 0 993 -- 29
2020-08-23 12:00:00 32.8 0 Calma 8 Sudeste 0 993.8 -- 33
2020-08-23 11:00:00 28.4 3 Este 9 Sudeste 0 994.1 -- 43
2020-08-23 10:00:00 24.6 3 Este 6 Sudeste 0 994.3 -- 52
2020-08-23 09:00:00 20 0 Calma 4 Oeste 0 994.2 -- 62
2020-08-23 08:00:00 16.8 0 Calma 5 Sudeste 0 994 -- 69
2020-08-23 07:00:00 17.1 3 Sudeste 5 Este 0 993.6 -- 62
2020-08-23 06:00:00 17.8 0 Calma 5 Sudeste 0 993.5 -- 64
2020-08-23 05:00:00 19.1 3 Este 6 Sudeste 0 993.9 -- 55
2020-08-23 04:00:00 20.9 2 Este 4 Sudeste 0 994 -- 51
2020-08-23 03:00:00 21.6 0 Calma 4 Oeste 0 993.8 -- 51
2020-08-23 02:00:00 22.9 0 Calma 8 Este 0 993.7 -- 49
2020-08-23 01:00:00 24.4 0 Calma 9 Oeste 0 993.4 -- 50
2020-08-23 00:00:00 26.6 3 Sudoeste 6 Sudoeste 0 993.3 -- 44
2020-08-22 23:00:00 28 0 Calma 7 Noroeste 0 993.2 -- 45
2020-08-22 22:00:00 30.1 5 Oeste 11 Oeste 0 992.6 -- 44
2020-08-22 21:00:00 32.3 8 Oeste 13 Sudoeste 0 991.7 -- 38
2020-08-22 20:00:00 35.4 8 Sudoeste 18 Sudoeste 0 991.5 -- 33
2020-08-22 19:00:00 36.1 6 Oeste 21 Oeste 0 991.6 -- 33
2020-08-22 18:00:00 37.7 7 Oeste 23 Oeste 0 992 -- 32
2020-08-22 17:00:00 36.5 9 Oeste 20 Oeste 0 992.7 -- 35
2020-08-22 16:00:00 35.7 9 Oeste 19 Oeste 0 993.5 -- 35
2020-08-22 15:00:00 35.8 2 Sur 16 Sudoeste 0 994.4 -- 36
2020-08-22 14:00:00 34.2 3 Noroeste 14 Sudeste 0 995 -- 38
2020-08-22 13:00:00 33.1 2 Sudeste 12 Este 0 995.4 -- 39
2020-08-22 12:00:00 30.9 2 Sudoeste 9 Este 0 996 -- 47
2020-08-22 11:00:00 28.8 0 Calma 7 Sudeste 0 996.2 -- 48
2020-08-22 10:00:00 -- 4 Este 7 Este 0 -- -- --
2020-08-22 09:00:00 21 0 Calma 4 Sudeste 0 995.9 -- 66
2020-08-22 08:00:00 17.6 4 Sudeste 6 Este 0 995.1 -- 71
2020-08-22 07:00:00 18 0 Calma 3 Sudeste 0 994.6 -- 66
2020-08-22 06:00:00 18.8 0 Calma 5 Sudeste 0 994.1 -- 62
2020-08-22 05:00:00 19.3 0 Calma 3 Este 0 993.9 -- 57
2020-08-22 04:00:00 20 0 Calma 5 Sudoeste 0 993.6 -- 54
2020-08-22 03:00:00 20.8 0 Calma 6 Oeste 0 993.4 -- 53
2020-08-22 02:00:00 21.3 0 Calma 5 Sur 0 993.1 -- 46
2020-08-22 01:00:00 23.3 2 Sudeste 7 Sudeste 0 992.7 -- 41
2020-08-22 00:00:00 25 5 Este 9 Nordeste 0 992.1 -- 39
2020-08-21 23:00:00 25.8 2 Sur 15 Sudoeste 0 991.7 -- 36
2020-08-21 22:00:00 29.3 12 Sudoeste 17 Oeste 0 990.8 -- 33
2020-08-21 21:00:00 30.8 11 Oeste 23 Sudoeste 0 990.2 -- 29
2020-08-21 20:00:00 34.3 15 Sudoeste 27 Sudoeste 0 989.7 -- 26
2020-08-21 19:00:00 34.6 16 Oeste 31 Sudoeste 0 989.8 -- 27
2020-08-21 18:00:00 35.6 12 Oeste 26 Oeste 0 989.7 -- 28
2020-08-21 17:00:00 35.5 13 Oeste 26 Oeste 0 989.8 -- 28
2020-08-21 16:00:00 34.7 10 Oeste 24 Noroeste 0 990.3 -- 31
2020-08-21 15:00:00 34.6 8 Oeste 19 Noroeste 0 990.9 -- 32
2020-08-21 14:00:00 32.7 5 Noroeste 17 Noroeste 0 991.2 -- 35
2020-08-21 13:00:00 30.5 4 Noroeste 12 Norte 0 991.4 -- 43
2020-08-21 12:00:00 28.4 5 Noroeste 10 Noroeste 0 991.7 -- 44
2020-08-21 11:00:00 26.9 2 Este 7 Este 0 991.4 -- 45
2020-08-21 10:00:00 23.7 3 Este 7 Este 0 991 -- 43
2020-08-21 09:00:00 18.8 0 Calma 3 Sudeste 0 990.8 -- 52
2020-08-21 08:00:00 15.6 2 Sudeste 4 Este 0 990.2 -- 55
2020-08-21 07:00:00 16 0 Calma 4 Este 0 989.6 -- 53
2020-08-21 06:00:00 17 0 Calma 0 Calma 0 989 -- 49
2020-08-21 05:00:00 17.5 0 Calma 4 Sudoeste 0 989 -- 48
2020-08-21 04:00:00 19.2 2 Sudoeste 8 Oeste 0 988.7 -- 43
2020-08-21 03:00:00 20.7 8 Oeste 11 Oeste 0 988.6 -- 39
2020-08-21 02:00:00 24.3 5 Sudoeste 27 Oeste 0 988.5 -- 31
2020-08-21 01:00:00 23.9 6 Oeste 9 Oeste 0 987.9 -- 32
2020-08-21 00:00:00 24.6 2 Sudoeste 23 Oeste 0 986.7 -- 30